Time;durP1;ratioP1;P1;durP2;ratioP2;P2;SDS_P1;SDS_P2;PMS_P1;PMS_P2;Temp;Humidity;BMP_temperature;BMP_pressure;BME280_temperature;BME280_humidity;BME280_pressure;Samples;Min_cycle;Max_cycle;Signal;HPM_P1;HPM_P2
2023/05/29 00:00:52;;;;;;;7.53;3.03;;;11.70;99.90;;;;;;5031675;28;20223;-72
2023/05/29 00:03:19;;;;;;;13.07;3.27;;;11.60;99.90;;;;;;5048195;28;20221;-73
2023/05/29 00:05:46;;;;;;;16.73;3.30;;;11.60;99.90;;;;;;5047077;28;20199;-73
2023/05/29 00:08:13;;;;;;;9.13;3.47;;;11.60;99.90;;;;;;5044486;28;20659;-72
2023/05/29 00:10:40;;;;;;;12.87;2.43;;;11.50;99.90;;;;;;5051822;28;20201;-74
2023/05/29 00:13:07;;;;;;;16.30;3.30;;;11.50;99.90;;;;;;5050618;28;20353;-72
2023/05/29 00:15:34;;;;;;;15.90;3.33;;;11.50;99.90;;;;;;5047246;28;20245;-72
2023/05/29 00:18:01;;;;;;;19.00;3.23;;;11.50;99.90;;;;;;5029920;28;20229;-72
2023/05/29 00:20:28;;;;;;;17.73;3.20;;;11.50;99.90;;;;;;5044009;28;20201;-74
2023/05/29 00:22:57;;;;;;;11.07;3.10;;;11.40;99.90;;;;;;5033990;28;20263;-75
2023/05/29 00:25:24;;;;;;;13.13;3.67;;;11.40;99.90;;;;;;5033609;28;20197;-72
2023/05/29 00:27:51;;;;;;;17.57;2.93;;;11.40;99.90;;;;;;5047981;28;20274;-72
2023/05/29 00:30:17;;;;;;;13.60;3.07;;;11.40;99.90;;;;;;5046083;28;20214;-73
2023/05/29 00:32:45;;;;;;;12.53;3.33;;;11.40;99.90;;;;;;5031795;28;20326;-72
2023/05/29 00:35:12;;;;;;;15.07;2.57;;;11.40;99.90;;;;;;5051399;28;20573;-72
2023/05/29 00:37:39;;;;;;;14.53;3.10;;;11.40;99.90;;;;;;5042017;28;20257;-73
2023/05/29 00:40:07;;;;;;;12.93;2.87;;;11.30;99.90;;;;;;5046102;28;20195;-72
2023/05/29 00:42:33;;;;;;;12.83;3.10;;;11.30;99.90;;;;;;5040600;28;20203;-73
2023/05/29 00:45:01;;;;;;;14.47;3.40;;;11.30;99.90;;;;;;5050261;28;20620;-72
2023/05/29 00:47:28;;;;;;;15.60;3.10;;;11.20;99.90;;;;;;5051615;28;20226;-75
2023/05/29 00:49:56;;;;;;;10.20;2.60;;;11.20;99.90;;;;;;5050507;28;20274;-72
2023/05/29 00:52:25;;;;;;;14.73;3.50;;;11.20;99.90;;;;;;5047168;28;20206;-74
2023/05/29 00:54:53;;;;;;;12.57;3.43;;;11.10;99.90;;;;;;5044307;28;20251;-73
2023/05/29 00:57:20;;;;;;;14.53;2.80;;;11.10;99.90;;;;;;5044929;28;20205;-73
2023/05/29 00:59:47;;;;;;;12.43;3.33;;;11.00;99.90;;;;;;5030984;28;20226;-72
2023/05/29 01:02:16;;;;;;;12.63;3.10;;;11.00;99.90;;;;;;5050796;28;20221;-73
2023/05/29 01:04:45;;;;;;;12.37;2.70;;;11.00;99.90;;;;;;5046504;28;20209;-72
2023/05/29 01:07:13;;;;;;;8.77;2.50;;;11.00;99.90;;;;;;5043899;28;20203;-72
2023/05/29 01:09:41;;;;;;;13.43;2.87;;;10.90;99.90;;;;;;5046707;28;20657;-72
2023/05/29 01:12:12;;;;;;;13.90;3.73;;;10.90;99.90;;;;;;5031914;28;20209;-73
2023/05/29 01:14:58;;;;;;;9.80;3.00;;;10.90;99.90;;;;;;5047468;28;20291;-72
2023/05/29 01:17:46;;;;;;;15.10;3.90;;;10.80;99.90;;;;;;5048128;28;20221;-72
2023/05/29 01:20:53;;;;;;;13.17;2.83;;;10.80;99.90;;;;;;5042449;28;20263;-72
2023/05/29 01:23:48;;;;;;;11.80;2.73;;;10.80;99.90;;;;;;5048344;28;20262;-73
2023/05/29 01:26:42;;;;;;;12.63;3.07;;;10.70;99.90;;;;;;5045561;28;20604;-73
2023/05/29 01:29:13;;;;;;;13.03;2.80;;;10.70;99.90;;;;;;5048031;28;20198;-73
2023/05/29 01:31:42;;;;;;;10.00;3.00;;;10.70;99.90;;;;;;5046324;28;20246;-73
2023/05/29 01:34:09;;;;;;;12.50;3.00;;;10.70;99.90;;;;;;5052250;28;20347;-73
2023/05/29 01:36:36;;;;;;;9.43;3.03;;;10.60;99.90;;;;;;5043493;28;20264;-73
2023/05/29 01:39:03;;;;;;;20.10;3.13;;;10.60;99.90;;;;;;5050348;28;20258;-72
2023/05/29 01:41:31;;;;;;;8.07;2.73;;;10.60;99.90;;;;;;5042473;28;20595;-72
2023/05/29 01:43:59;;;;;;;11.13;2.80;;;10.50;99.90;;;;;;5049872;28;20235;-73
2023/05/29 01:46:27;;;;;;;10.07;2.70;;;10.50;99.90;;;;;;5051127;28;20221;-73
2023/05/29 01:48:57;;;;;;;9.50;2.77;;;10.50;99.90;;;;;;5046946;28;20284;-73
2023/05/29 01:51:24;;;;;;;10.70;3.13;;;10.50;99.90;;;;;;5053062;28;20201;-73
2023/05/29 01:53:51;;;;;;;7.80;2.53;;;10.40;99.90;;;;;;5053035;28;20727;-73
2023/05/29 01:56:18;;;;;;;12.27;3.40;;;10.40;99.90;;;;;;5055254;28;20219;-73
2023/05/29 01:58:46;;;;;;;12.87;3.03;;;10.40;99.90;;;;;;5056307;28;20204;-72
2023/05/29 02:01:13;;;;;;;12.77;2.93;;;10.40;99.90;;;;;;5056721;28;20573;-73
2023/05/29 02:03:39;;;;;;;16.03;3.37;;;10.30;99.90;;;;;;5032567;28;20654;-73
2023/05/29 02:06:06;;;;;;;8.83;2.57;;;10.30;99.90;;;;;;5054472;28;20236;-73
2023/05/29 02:08:33;;;;;;;10.73;2.90;;;10.30;99.90;;;;;;5053577;28;20291;-73
2023/05/29 02:11:00;;;;;;;13.83;2.90;;;10.30;99.90;;;;;;5055437;28;20790;-72
2023/05/29 02:13:27;;;;;;;10.27;2.60;;;10.30;99.90;;;;;;5055226;28;20225;-74
2023/05/29 02:15:54;;;;;;;10.97;2.73;;;10.30;99.90;;;;;;5051490;28;20219;-73
2023/05/29 02:18:20;;;;;;;9.87;2.80;;;10.30;99.90;;;;;;5055532;28;20514;-74
2023/05/29 02:20:47;;;;;;;15.80;3.20;;;10.20;99.90;;;;;;5044154;28;20651;-73
2023/05/29 02:23:15;;;;;;;15.83;3.40;;;;;;;;;;5044899;28;20205;-73
2023/05/29 02:25:42;;;;;;;9.27;3.07;;;10.20;99.90;;;;;;5046311;28;20250;-73
2023/05/29 02:28:09;;;;;;;13.77;3.10;;;10.20;99.90;;;;;;5044232;28;20213;-74
2023/05/29 02:30:36;;;;;;;8.40;3.10;;;10.10;99.90;;;;;;5031468;28;20208;-73
2023/05/29 02:33:03;;;;;;;14.67;2.77;;;10.10;99.90;;;;;;5045835;28;20228;-73
2023/05/29 02:35:30;;;;;;;11.37;2.90;;;10.10;99.90;;;;;;5048816;28;20579;-74
2023/05/29 02:37:57;;;;;;;13.30;3.20;;;10.10;99.90;;;;;;5049451;28;20681;-73
2023/05/29 02:40:24;;;;;;;14.80;2.90;;;10.10;99.90;;;;;;5049178;28;20691;-73
2023/05/29 02:42:51;;;;;;;8.80;3.53;;;10.00;99.90;;;;;;5045622;28;20197;-73
2023/05/29 02:45:18;;;;;;;13.43;3.13;;;10.00;99.90;;;;;;5046547;28;20266;-75
2023/05/29 02:47:45;;;;;;;13.60;2.97;;;10.00;99.90;;;;;;5044406;28;20218;-73
2023/05/29 02:50:14;;;;;;;10.13;2.60;;;10.00;99.90;;;;;;5044127;28;20212;-74
2023/05/29 02:52:41;;;;;;;11.30;2.87;;;9.90;99.90;;;;;;5049365;28;20341;-73
2023/05/29 02:55:08;;;;;;;19.00;3.27;;;9.90;99.90;;;;;;5041379;28;20235;-74
2023/05/29 02:57:35;;;;;;;7.33;2.40;;;9.90;99.90;;;;;;5027962;28;20638;-73
2023/05/29 03:00:07;;;;;;;19.30;3.03;;;9.90;99.90;;;;;;5047004;28;20202;-73
2023/05/29 03:02:35;;;;;;;15.37;3.30;;;9.90;99.90;;;;;;5046404;28;20294;-72
2023/05/29 03:05:02;;;;;;;7.67;2.50;;;9.90;99.90;;;;;;5046698;28;20245;-73
2023/05/29 03:07:29;;;;;;;14.03;2.93;;;9.90;99.90;;;;;;5048246;28;20652;-74
2023/05/29 03:09:56;;;;;;;13.07;2.50;;;9.80;99.90;;;;;;5048473;28;20607;-73
2023/05/29 03:12:27;;;;;;;16.80;2.80;;;9.80;99.90;;;;;;5044138;28;20222;-73
2023/05/29 03:14:56;;;;;;;16.17;2.83;;;9.80;99.90;;;;;;5044297;28;20250;-74
2023/05/29 03:17:23;;;;;;;14.47;2.80;;;9.80;99.90;;;;;;5047884;28;20233;-73
2023/05/29 03:19:50;;;;;;;10.27;2.83;;;9.80;99.90;;;;;;5048726;28;20208;-74
2023/05/29 03:22:17;;;;;;;16.57;3.20;;;9.80;99.90;;;;;;5043594;28;20232;-74
2023/05/29 03:24:44;;;;;;;14.03;2.80;;;9.70;99.90;;;;;;5046580;28;20274;-73
2023/05/29 03:27:11;;;;;;;11.10;2.50;;;9.70;99.90;;;;;;5045763;28;20208;-72
2023/05/29 03:29:38;;;;;;;11.20;2.40;;;9.70;99.90;;;;;;5029337;28;20562;-72
2023/05/29 03:32:05;;;;;;;4.43;2.43;;;9.70;99.90;;;;;;5042403;28;20229;-73
2023/05/29 03:34:31;;;;;;;14.70;2.93;;;9.70;99.90;;;;;;5047430;28;20228;-73
2023/05/29 03:36:58;;;;;;;7.83;2.60;;;9.70;99.90;;;;;;5044587;28;20252;-74
2023/05/29 03:39:25;;;;;;;9.37;2.47;;;9.60;99.90;;;;;;5051675;28;20202;-73
2023/05/29 03:41:52;;;;;;;10.63;2.53;;;9.70;99.90;;;;;;5048373;28;20266;-73
2023/05/29 03:44:19;;;;;;;11.77;3.00;;;9.70;99.90;;;;;;5048071;28;20658;-73
2023/05/29 03:46:45;;;;;;;13.50;2.67;;;9.70;99.90;;;;;;5052434;28;20281;-72
2023/05/29 03:49:12;;;;;;;16.33;2.83;;;9.70;99.90;;;;;;5052376;28;20282;-73
2023/05/29 03:51:39;;;;;;;13.90;3.13;;;9.70;99.90;;;;;;5047889;28;20201;-73
2023/05/29 03:54:06;;;;;;;12.53;2.63;;;9.70;99.90;;;;;;5047881;28;20231;-74
2023/05/29 03:56:33;;;;;;;11.87;2.60;;;9.70;99.90;;;;;;5049566;28;20250;-74
2023/05/29 03:59:00;;;;;;;10.90;2.40;;;9.70;99.90;;;;;;5049873;28;20212;-72
2023/05/29 04:01:27;;;;;;;12.87;3.10;;;9.70;99.90;;;;;;5032767;28;20217;-73
2023/05/29 04:03:54;;;;;;;10.67;2.67;;;9.70;99.90;;;;;;5046364;28;20206;-74
2023/05/29 04:06:21;;;;;;;15.60;2.30;;;9.70;99.90;;;;;;5050377;28;20211;-73
2023/05/29 04:08:49;;;;;;;9.20;2.83;;;9.70;99.90;;;;;;5047103;28;20216;-72
2023/05/29 04:11:16;;;;;;;18.63;2.73;;;9.80;99.90;;;;;;5045883;28;20685;-72
2023/05/29 04:13:44;;;;;;;13.57;3.00;;;9.80;99.90;;;;;;5051416;28;20213;-73
2023/05/29 04:16:11;;;;;;;12.40;2.70;;;9.80;99.90;;;;;;5047848;28;20223;-74
2023/05/29 04:18:37;;;;;;;16.20;2.30;;;9.80;99.90;;;;;;5051540;28;20205;-74
2023/05/29 04:21:05;;;;;;;9.40;2.57;;;9.80;99.90;;;;;;5029344;28;20206;-73
2023/05/29 04:23:32;;;;;;;10.33;2.30;;;9.80;99.90;;;;;;5050607;28;20617;-72
2023/05/29 04:26:00;;;;;;;11.20;2.83;;;9.90;99.90;;;;;;5048464;28;20213;-72
2023/05/29 04:28:27;;;;;;;12.70;2.83;;;9.90;99.90;;;;;;5051310;28;20220;-73
2023/05/29 04:30:56;;;;;;;9.87;2.23;;;9.90;99.90;;;;;;5051467;28;20221;-73
2023/05/29 04:33:23;;;;;;;14.00;3.53;;;9.90;99.90;;;;;;5047265;28;20525;-72
2023/05/29 04:35:50;;;;;;;11.70;2.77;;;9.90;99.90;;;;;;5051304;28;20236;-75
2023/05/29 04:38:19;;;;;;;13.47;2.43;;;10.00;99.90;;;;;;5048770;28;20660;-73
2023/05/29 04:40:45;;;;;;;22.93;2.93;;;10.00;99.90;;;;;;5045812;28;20217;-72
2023/05/29 04:43:15;;;;;;;10.10;2.47;;;10.00;99.90;;;;;;5048156;28;20213;-73
2023/05/29 04:45:43;;;;;;;11.63;2.30;;;10.10;99.90;;;;;;5043503;28;20207;-73
2023/05/29 04:48:10;;;;;;;13.23;2.27;;;10.10;99.90;;;;;;5048957;28;20205;-73
2023/05/29 04:50:38;;;;;;;12.53;3.57;;;10.20;99.90;;;;;;5051049;28;20297;-75
2023/05/29 04:53:06;;;;;;;9.60;2.77;;;10.20;99.90;;;;;;5046753;28;20208;-73
2023/05/29 04:55:32;;;;;;;16.60;2.80;;;10.20;99.90;;;;;;5043789;28;20315;-72
2023/05/29 04:58:00;;;;;;;9.33;3.17;;;10.30;99.90;;;;;;5030014;28;20205;-74
2023/05/29 05:00:26;;;;;;;9.70;2.20;;;10.30;99.90;;;;;;5047903;28;20201;-73
2023/05/29 05:02:53;;;;;;;15.90;2.63;;;10.40;99.90;;;;;;5045395;28;20675;-74
2023/05/29 05:05:21;;;;;;;13.60;2.83;;;10.40;99.90;;;;;;5045413;28;20525;-73
2023/05/29 05:07:47;;;;;;;12.63;2.60;;;10.60;99.90;;;;;;5043050;28;20198;-73
2023/05/29 05:10:14;;;;;;;9.23;2.50;;;10.60;99.90;;;;;;5044663;28;20899;-73
2023/05/29 05:12:41;;;;;;;11.70;2.80;;;10.60;99.90;;;;;;5049617;28;20211;-74
2023/05/29 05:15:08;;;;;;;7.60;2.87;;;10.70;99.90;;;;;;5046169;28;20226;-73
2023/05/29 05:17:35;;;;;;;9.57;2.43;;;10.70;99.90;;;;;;5047104;28;20255;-73
2023/05/29 05:20:05;;;;;;;9.43;2.80;;;10.80;99.90;;;;;;5047106;28;20206;-73
2023/05/29 05:22:33;;;;;;;10.47;2.53;;;10.90;99.90;;;;;;5042485;28;20228;-75
2023/05/29 05:25:00;;;;;;;12.60;3.03;;;10.90;99.90;;;;;;5044558;28;20221;-73
2023/05/29 05:27:27;;;;;;;7.87;2.47;;;11.00;99.90;;;;;;5025454;28;20609;-72
2023/05/29 05:29:54;;;;;;;9.63;2.27;;;11.10;99.90;;;;;;5047224;28;20204;-72
2023/05/29 05:32:20;;;;;;;13.07;2.00;;;11.50;99.90;;;;;;5047493;28;20220;-74
2023/05/29 05:34:47;;;;;;;7.37;2.53;;;12.20;99.90;;;;;;5046541;28;20340;-73
2023/05/29 05:37:14;;;;;;;15.70;2.40;;;12.80;99.90;;;;;;5046472;28;20207;-73
2023/05/29 05:39:41;;;;;;;12.37;1.80;;;;;;;;;;5047611;28;20713;-74
2023/05/29 05:42:08;;;;;;;8.73;2.00;;;14.40;99.90;;;;;;5044944;28;20224;-74
2023/05/29 05:44:35;;;;;;;6.77;1.73;;;15.10;99.90;;;;;;5048539;28;20254;-74
2023/05/29 05:47:02;;;;;;;7.88;1.77;;;15.80;99.90;;;;;;5045555;28;20225;-73
2023/05/29 05:49:29;;;;;;;4.95;1.73;;;16.20;99.90;;;;;;5024654;28;20513;-73
2023/05/29 05:51:56;;;;;;;10.27;1.98;;;16.60;99.90;;;;;;5028083;28;20423;-72
2023/05/29 05:54:23;;;;;;;8.60;2.42;;;17.10;99.90;;;;;;5048201;28;20225;-74
2023/05/29 05:56:50;;;;;;;6.72;2.20;;;17.60;99.90;;;;;;5047199;28;20209;-74
2023/05/29 05:59:16;;;;;;;11.43;2.33;;;18.10;99.90;;;;;;5045033;28;20193;-75
2023/05/29 06:01:43;;;;;;;9.90;2.28;;;18.30;99.90;;;;;;5042714;28;20229;-73
2023/05/29 06:04:10;;;;;;;6.68;1.75;;;18.60;99.90;;;;;;5048712;28;20193;-74
2023/05/29 06:06:37;;;;;;;8.18;1.80;;;18.70;99.90;;;;;;5045353;28;20209;-74
2023/05/29 06:09:04;;;;;;;10.82;2.00;;;19.10;99.90;;;;;;5048221;28;20650;-74
2023/05/29 06:11:31;;;;;;;7.25;1.77;;;19.30;99.90;;;;;;5045838;28;20198;-76
2023/05/29 06:13:58;;;;;;;8.68;2.50;;;19.40;99.90;;;;;;5047320;28;20236;-73
2023/05/29 06:16:25;;;;;;;7.78;1.90;;;19.40;99.90;;;;;;5043222;28;20658;-74
2023/05/29 06:18:52;;;;;;;13.18;2.58;;;19.50;99.90;;;;;;5047616;28;20213;-73
2023/05/29 06:21:19;;;;;;;9.80;2.53;;;19.90;99.90;;;;;;5049397;28;20263;-74
2023/05/29 06:23:46;;;;;;;12.73;2.28;;;20.20;99.90;;;;;;5048088;28;20213;-74
2023/05/29 06:26:13;;;;;;;8.02;2.13;;;20.20;99.90;;;;;;5047277;28;20205;-73
2023/05/29 06:28:40;;;;;;;8.13;1.90;;;20.60;99.90;;;;;;5046838;28;20274;-73
2023/05/29 06:31:07;;;;;;;9.93;2.20;;;20.50;99.90;;;;;;5025339;28;20221;-75
2023/05/29 06:33:33;;;;;;;5.90;1.67;;;20.70;99.90;;;;;;5045482;28;20197;-74
2023/05/29 06:36:00;;;;;;;7.93;1.90;;;21.00;99.90;;;;;;5048400;28;20257;-73
2023/05/29 06:38:29;;;;;;;7.20;1.80;;;21.30;99.90;;;;;;5041169;28;20275;-73
2023/05/29 06:40:56;;;;;;;8.48;2.47;;;21.30;99.90;;;;;;5042638;28;20205;-74
2023/05/29 06:43:23;;;;;;;7.22;2.33;;;21.30;99.90;;;;;;5045830;28;20205;-74
2023/05/29 06:45:50;;;;;;;9.23;2.03;;;21.20;99.90;;;;;;5040747;28;20298;-74
2023/05/29 06:48:16;;;;;;;8.80;1.98;;;21.10;99.90;;;;;;5046091;28;20256;-74
2023/05/29 06:50:43;;;;;;;9.60;2.20;;;20.90;99.90;;;;;;5019908;28;20197;-73
2023/05/29 06:53:10;;;;;;;8.30;2.40;;;21.20;99.90;;;;;;5048241;28;20577;-75
2023/05/29 06:55:40;;;;;;;11.63;2.28;;;21.50;99.90;;;;;;5041826;28;20256;-75
2023/05/29 06:58:10;;;;;;;9.70;2.22;;;21.60;99.90;;;;;;5042449;28;20200;-73
2023/05/29 07:00:37;;;;;;;8.10;1.88;;;21.70;99.90;;;;;;5047611;28;20251;-73
2023/05/29 07:03:03;;;;;;;9.25;2.13;;;21.50;99.90;;;;;;5041941;28;20676;-74
2023/05/29 07:05:30;;;;;;;9.93;2.78;;;21.40;99.90;;;;;;5040485;28;20280;-73
2023/05/29 07:07:57;;;;;;;8.68;1.98;;;21.50;99.90;;;;;;5027911;28;20250;-72
2023/05/29 07:10:24;;;;;;;7.07;1.92;;;21.30;99.90;;;;;;5027989;28;20607;-74
2023/05/29 07:12:51;;;;;;;7.53;2.47;;;21.10;99.90;;;;;;5046035;28;20197;-74
2023/05/29 07:15:18;;;;;;;9.13;2.10;;;21.10;99.90;;;;;;5049149;28;20385;-73
2023/05/29 07:17:45;;;;;;;10.65;1.73;;;21.10;99.90;;;;;;5048669;28;20229;-73
2023/05/29 07:20:12;;;;;;;5.90;1.75;;;21.30;99.90;;;;;;5046097;28;20213;-73
2023/05/29 07:22:39;;;;;;;11.57;2.13;;;21.70;99.90;;;;;;5032621;28;20284;-76
2023/05/29 07:25:06;;;;;;;7.85;2.00;;;21.90;99.90;;;;;;5032947;28;20905;-75
2023/05/29 07:27:35;;;;;;;10.35;2.40;;;22.10;99.90;;;;;;5051012;28;20234;-76
2023/05/29 07:30:02;;;;;;;8.32;2.17;;;22.10;99.90;;;;;;5051459;28;20201;-77
2023/05/29 07:32:30;;;;;;;8.88;2.05;;;22.20;99.90;;;;;;5052121;28;20339;-76
2023/05/29 07:34:57;;;;;;;7.30;2.28;;;22.30;99.90;;;;;;5052625;28;20719;-75
2023/05/29 07:37:24;;;;;;;8.57;2.63;;;22.10;99.90;;;;;;5052786;28;20201;-74
2023/05/29 07:39:51;;;;;;;7.43;2.22;;;22.10;99.90;;;;;;5050737;28;20202;-77
2023/05/29 07:42:17;;;;;;;7.25;1.90;;;22.00;99.90;;;;;;5048917;28;20193;-74
2023/05/29 07:44:45;;;;;;;6.15;2.05;;;21.80;99.90;;;;;;5040266;28;20221;-74
2023/05/29 07:47:12;;;;;;;10.38;2.50;;;21.60;99.90;;;;;;5047458;28;20221;-75
2023/05/29 07:49:39;;;;;;;12.25;2.90;;;21.10;99.90;;;;;;5051583;28;20223;-74
2023/05/29 07:52:06;;;;;;;6.78;2.10;;;21.00;99.90;;;;;;5048195;28;20205;-73
2023/05/29 07:54:33;;;;;;;7.93;2.17;;;21.10;99.90;;;;;;5048577;28;20201;-74
2023/05/29 07:57:02;;;;;;;9.75;2.40;;;21.00;99.90;;;;;;5050397;28;20217;-73
2023/05/29 07:59:29;;;;;;;8.48;2.45;;;21.00;99.90;;;;;;5049410;28;20707;-74
2023/05/29 08:01:58;;;;;;;7.55;2.00;;;21.10;99.90;;;;;;5051946;28;20747;-75
2023/05/29 08:04:25;;;;;;;7.75;2.00;;;21.20;99.90;;;;;;5052275;28;20568;-75
2023/05/29 08:06:52;;;;;;;9.23;2.38;;;21.60;99.90;;;;;;5052458;28;20212;-75
2023/05/29 08:09:19;;;;;;;8.93;2.60;;;21.70;99.90;;;;;;5043941;28;20611;-73
2023/05/29 08:11:46;;;;;;;10.73;2.35;;;21.60;99.90;;;;;;5046858;28;20197;-74
2023/05/29 08:14:16;;;;;;;10.45;2.53;;;21.60;99.90;;;;;;5049846;28;20197;-73
2023/05/29 08:16:43;;;;;;;11.27;2.53;;;21.80;99.90;;;;;;5050898;28;20252;-74
2023/05/29 08:19:10;;;;;;;7.90;2.30;;;21.70;99.90;;;;;;5051137;28;20197;-74
2023/05/29 08:21:37;;;;;;;9.35;2.38;;;21.80;99.90;;;;;;5049954;28;20224;-75
2023/05/29 08:24:05;;;;;;;7.68;2.45;;;21.80;99.90;;;;;;5051007;28;20685;-74
2023/05/29 08:26:32;;;;;;;5.65;1.85;;;21.90;99.90;;;;;;5052204;28;20292;-74
2023/05/29 08:28:59;;;;;;;8.63;2.20;;;21.70;99.90;;;;;;5049996;28;20215;-74
2023/05/29 08:31:26;;;;;;;9.38;2.67;;;21.70;99.90;;;;;;5051417;28;20229;-73
2023/05/29 08:33:54;;;;;;;7.85;2.10;;;21.70;99.90;;;;;;5046189;28;20273;-74
2023/05/29 08:36:21;;;;;;;8.38;2.10;;;21.50;99.90;;;;;;5046842;28;20754;-73
2023/05/29 08:38:49;;;;;;;6.93;2.20;;;21.40;99.90;;;;;;5051274;28;20245;-74
2023/05/29 08:41:26;;;;;;;8.13;1.90;;;21.20;99.90;;;;;;5044363;28;20198;-74
2023/05/29 08:43:54;;;;;;;8.65;2.08;;;21.10;99.90;;;;;;5044275;28;20235;-74
2023/05/29 08:46:21;;;;;;;6.43;1.80;;;21.10;99.90;;;;;;5050778;28;20228;-73
2023/05/29 08:48:52;;;;;;;8.30;2.10;;;21.00;99.90;;;;;;5043595;28;20296;-73
2023/05/29 08:51:29;;;;;;;10.60;2.33;;;20.90;99.90;;;;;;5030899;28;20220;-75
2023/05/29 08:53:56;;;;;;;8.10;2.33;;;20.70;99.90;;;;;;5047011;28;20201;-75
2023/05/29 08:56:23;;;;;;;6.35;2.00;;;20.50;99.90;;;;;;5046150;28;20228;-74
2023/05/29 08:59:02;;;;;;;10.27;2.70;;;20.30;99.90;;;;;;5030006;28;20204;-73
2023/05/29 09:01:34;;;;;;;7.00;2.53;;;20.30;99.90;;;;;;5044896;28;20217;-73
2023/05/29 09:04:02;;;;;;;8.77;2.25;;;20.10;99.90;;;;;;5050898;28;20209;-74
2023/05/29 09:06:29;;;;;;;9.52;2.08;;;20.10;99.90;;;;;;5050987;28;20232;-73
2023/05/29 09:08:57;;;;;;;6.68;2.03;;;20.20;99.90;;;;;;5045738;28;20216;-74
2023/05/29 09:11:26;;;;;;;10.82;2.22;;;20.40;99.90;;;;;;5047171;28;20244;-74
2023/05/29 09:13:53;;;;;;;10.35;2.10;;;20.60;99.90;;;;;;5042526;28;20209;-74
2023/05/29 09:16:20;;;;;;;8.90;2.20;;;20.80;99.90;;;;;;5025181;28;20238;-73
2023/05/29 09:18:48;;;;;;;10.65;2.45;;;20.80;99.90;;;;;;5044937;28;20205;-72
2023/05/29 09:21:32;;;;;;;9.32;2.03;;;20.80;99.90;;;;;;5047158;28;20269;-74
2023/05/29 09:24:04;;;;;;;5.75;2.05;;;20.70;99.90;;;;;;5046584;28;20293;-72
2023/05/29 09:26:32;;;;;;;8.10;2.30;;;20.70;99.90;;;;;;5046857;28;20201;-73
2023/05/29 09:28:59;;;;;;;9.48;2.35;;;20.70;99.90;;;;;;5046538;28;20209;-74
2023/05/29 09:31:26;;;;;;;5.05;1.90;;;20.70;99.90;;;;;;5050482;28;20213;-73
2023/05/29 09:33:53;;;;;;;6.47;2.20;;;20.80;99.90;;;;;;5043915;28;20247;-73
2023/05/29 09:36:22;;;;;;;9.88;2.20;;;21.00;99.90;;;;;;5050528;28;20229;-73
2023/05/29 09:38:51;;;;;;;10.00;2.78;;;21.00;99.90;;;;;;5043608;28;20197;-75
2023/05/29 09:41:25;;;;;;;7.78;2.70;;;20.80;99.90;;;;;;5042727;28;20209;-74
2023/05/29 09:43:55;;;;;;;10.43;2.58;;;20.80;99.90;;;;;;5046276;28;20212;-73
2023/05/29 09:46:22;;;;;;;10.60;2.88;;;20.70;99.90;;;;;;5049350;28;20689;-74
2023/05/29 09:48:49;;;;;;;9.35;2.40;;;20.70;99.90;;;;;;5047415;28;20677;-74
2023/05/29 09:51:24;;;;;;;8.40;2.20;;;20.60;99.90;;;;;;5045703;28;20657;-72
2023/05/29 09:53:53;;;;;;;7.93;2.35;;;20.50;99.90;;;;;;5038701;28;20205;-73
2023/05/29 09:56:24;;;;;;;10.02;2.30;;;20.50;99.90;;;;;;5049833;28;20228;-73
2023/05/29 09:58:53;;;;;;;8.38;2.42;;;20.30;99.90;;;;;;5044520;28;20209;-73
2023/05/29 10:01:21;;;;;;;9.65;2.70;;;20.30;99.90;;;;;;5028887;28;20273;-73
2023/05/29 10:03:49;;;;;;;9.82;2.22;;;20.40;99.90;;;;;;5046475;28;20240;-73
2023/05/29 10:06:20;;;;;;;6.40;2.10;;;20.50;99.90;;;;;;5049541;28;20211;-75
2023/05/29 10:08:50;;;;;;;7.38;3.25;;;20.50;99.90;;;;;;5048040;28;20684;-75
2023/05/29 10:11:24;;;;;;;7.95;2.10;;;20.50;99.90;;;;;;5037389;28;20316;-75
2023/05/29 10:13:53;;;;;;;14.18;2.50;;;20.60;99.80;;;;;;5046922;28;20197;-74
2023/05/29 10:16:22;;;;;;;5.90;2.13;;;20.50;99.50;;;;;;5046544;28;20279;-75
2023/05/29 10:18:57;;;;;;;7.53;2.10;;;20.50;99.30;;;;;;5038008;28;20197;-78
2023/05/29 10:21:27;;;;;;;9.50;2.33;;;20.70;99.40;;;;;;5040282;28;20662;-74
2023/05/29 10:23:56;;;;;;;8.98;2.30;;;20.70;99.10;;;;;;5045102;28;20232;-76
2023/05/29 10:26:30;;;;;;;9.75;2.67;;;20.70;99.10;;;;;;5042227;28;20201;-75
2023/05/29 10:29:03;;;;;;;12.65;2.50;;;20.60;99.20;;;;;;5045496;28;20274;-74
2023/05/29 10:31:46;;;;;;;5.47;2.00;;;20.50;99.10;;;;;;5040798;28;20343;-75
2023/05/29 10:34:46;;;;;;;7.22;2.40;;;20.40;98.80;;;;;;5048806;28;20585;-75
2023/05/29 10:37:28;;;;;;;9.45;2.47;;;20.40;98.40;;;;;;5044941;28;20755;-74
2023/05/29 10:40:08;;;;;;;8.50;2.42;;;20.50;98.50;;;;;;5043886;28;20205;-75
2023/05/29 10:42:47;;;;;;;7.95;2.45;;;20.60;98.30;;;;;;5039901;28;20213;-75
2023/05/29 10:45:39;;;;;;;9.75;2.38;;;20.70;98.40;;;;;;5027001;28;20201;-74
2023/05/29 10:48:06;;;;;;;8.55;2.17;;;20.70;97.80;;;;;;5031286;28;20255;-75
2023/05/29 10:50:47;;;;;;;8.20;2.30;;;20.80;98.50;;;;;;5028444;28;20201;-75
2023/05/29 10:53:23;;;;;;;8.77;2.75;;;21.10;98.10;;;;;;5040917;28;20572;-75
2023/05/29 10:55:51;;;;;;;10.25;2.45;;;21.20;98.00;;;;;;5042756;28;20231;-74
2023/05/29 10:58:19;;;;;;;8.50;2.53;;;21.20;97.70;;;;;;5047510;28;20266;-75
2023/05/29 11:00:47;;;;;;;9.57;2.45;;;21.20;97.80;;;;;;5045599;28;20201;-76
2023/05/29 11:03:22;;;;;;;8.25;2.53;;;21.20;97.60;;;;;;5046460;28;20201;-74
2023/05/29 11:06:20;;;;;;;8.95;3.00;;;21.20;97.90;;;;;;5043937;28;20204;-73
2023/05/29 11:08:53;;;;;;;8.85;2.60;;;21.10;97.90;;;;;;5039148;28;20206;-74
2023/05/29 11:11:35;;;;;;;7.53;2.42;;;20.90;97.80;;;;;;5028046;28;20566;-75
2023/05/29 11:14:04;;;;;;;6.50;2.30;;;21.00;98.00;;;;;;5049130;28;20259;-75
2023/05/29 11:16:32;;;;;;;10.27;2.58;;;21.10;98.40;;;;;;5044369;28;20244;-74
2023/05/29 11:19:04;;;;;;;9.55;2.65;;;21.20;97.70;;;;;;5029916;28;20515;-74
2023/05/29 11:21:44;;;;;;;6.57;2.25;;;21.20;97.40;;;;;;5029174;28;20201;-75
2023/05/29 11:24:17;;;;;;;7.32;2.50;;;21.10;97.90;;;;;;5044849;28;20258;-74
2023/05/29 11:26:45;;;;;;;11.95;2.30;;;21.00;97.40;;;;;;5028194;28;20221;-75
2023/05/29 11:29:13;;;;;;;8.77;2.40;;;21.00;97.50;;;;;;5024296;28;20229;-76
2023/05/29 11:31:40;;;;;;;10.18;3.10;;;21.10;97.70;;;;;;5025747;28;20536;-75
2023/05/29 11:34:13;;;;;;;8.73;2.17;;;21.10;97.70;;;;;;5044935;28;20209;-75
2023/05/29 11:36:42;;;;;;;9.88;2.83;;;21.10;97.10;;;;;;5022112;28;20625;-75
2023/05/29 11:39:09;;;;;;;10.48;2.63;;;20.90;97.00;;;;;;5033932;28;20686;-77
2023/05/29 11:41:36;;;;;;;10.88;2.65;;;20.90;96.60;;;;;;5040557;28;20209;-74
2023/05/29 11:44:08;;;;;;;8.10;2.53;;;20.70;96.50;;;;;;5041276;28;20185;-74
2023/05/29 11:46:36;;;;;;;8.00;2.58;;;20.80;96.50;;;;;;5047236;28;20223;-75
2023/05/29 11:49:02;;;;;;;10.93;2.75;;;20.80;96.20;;;;;;5043381;28;20243;-76
2023/05/29 11:51:29;;;;;;;8.45;2.42;;;20.80;96.20;;;;;;5048077;28;20201;-75
2023/05/29 11:53:59;;;;;;;10.55;3.00;;;20.90;96.50;;;;;;5047096;28;20225;-75
2023/05/29 11:56:27;;;;;;;12.75;2.50;;;20.90;96.60;;;;;;5046218;28;20602;-75
2023/05/29 11:58:56;;;;;;;8.63;2.25;;;21.20;96.90;;;;;;5046582;28;20220;-75
2023/05/29 12:01:28;;;;;;;10.50;2.30;;;21.30;96.70;;;;;;5029765;28;20248;-74
2023/05/29 12:03:55;;;;;;;7.57;2.50;;;21.30;96.70;;;;;;5047060;28;20216;-75
2023/05/29 12:06:33;;;;;;;10.00;2.42;;;21.40;96.40;;;;;;5033524;28;20205;-75
2023/05/29 12:09:02;;;;;;;6.40;2.08;;;21.30;96.00;;;;;;5049877;28;20243;-73
2023/05/29 12:11:29;;;;;;;9.13;2.47;;;21.40;96.20;;;;;;5044994;28;20204;-76
2023/05/29 12:13:57;;;;;;;9.77;1.90;;;21.30;96.30;;;;;;5046527;28;20663;-75
2023/05/29 12:16:25;;;;;;;11.02;2.22;;;21.30;95.20;;;;;;5046314;28;20599;-73
2023/05/29 12:18:54;;;;;;;6.18;2.22;;;21.10;95.10;;;;;;5043778;28;20621;-75
2023/05/29 12:21:22;;;;;;;9.65;2.60;;;21.10;95.70;;;;;;5048931;28;20202;-75
2023/05/29 12:23:52;;;;;;;5.70;2.50;;;21.30;95.80;;;;;;5048112;28;20216;-74
2023/05/29 12:26:36;;;;;;;9.32;2.45;;;21.40;96.00;;;;;;5048880;28;20280;-73
2023/05/29 12:29:07;;;;;;;7.50;2.40;;;21.40;95.80;;;;;;5044790;28;20254;-74
2023/05/29 12:31:34;;;;;;;9.90;2.20;;;21.50;95.90;;;;;;5030663;28;20224;-74
2023/05/29 12:34:02;;;;;;;11.60;2.72;;;21.50;95.50;;;;;;5045627;28;20220;-75
2023/05/29 12:36:30;;;;;;;10.20;2.38;;;21.50;94.90;;;;;;5045128;28;20716;-73
2023/05/29 12:39:00;;;;;;;5.38;1.90;;;21.40;94.60;;;;;;5047150;28;20201;-73
2023/05/29 12:41:38;;;;;;;8.85;2.53;;;21.50;94.70;;;;;;5044764;28;20209;-75
2023/05/29 12:44:06;;;;;;;6.80;2.22;;;21.30;93.80;;;;;;5046920;28;20201;-73
2023/05/29 12:46:38;;;;;;;6.68;2.40;;;21.40;94.40;;;;;;5048523;28;20217;-76
2023/05/29 12:49:16;;;;;;;9.00;2.95;;;21.40;94.90;;;;;;5050362;28;20258;-74
2023/05/29 12:51:44;;;;;;;7.60;2.13;;;21.60;95.50;;;;;;5045119;28;20205;-76